createdAt,value
2018-07-11T00:00:32.117Z,11.83
2018-07-11T00:01:38.022Z,11.74
2018-07-11T00:02:40.857Z,11.65
2018-07-11T00:03:51.883Z,11.70
2018-07-11T00:04:54.685Z,11.70
2018-07-11T00:05:58.106Z,11.74
2018-07-11T00:07:03.488Z,11.75
2018-07-11T00:08:06.308Z,11.77
2018-07-11T00:09:09.139Z,11.80
2018-07-11T00:10:12.010Z,11.86
2018-07-11T00:11:15.599Z,11.90
2018-07-11T00:12:19.173Z,11.95
2018-07-11T00:13:23.251Z,11.98
2018-07-11T00:14:28.584Z,12.05
2018-07-11T00:15:32.333Z,12.04
2018-07-11T00:16:35.742Z,12.05
2018-07-11T00:17:39.356Z,11.90
2018-07-11T00:18:42.226Z,11.84
2018-07-11T00:19:45.778Z,11.83
2018-07-11T00:20:48.617Z,11.79
2018-07-11T00:21:52.388Z,11.81
2018-07-11T00:22:55.376Z,11.91
2018-07-11T00:23:58.893Z,11.96
2018-07-11T00:25:01.748Z,12.02
2018-07-11T00:26:05.549Z,12.07
2018-07-11T00:27:08.496Z,12.07
2018-07-11T00:28:11.321Z,12.04
2018-07-11T00:29:14.117Z,11.99
2018-07-11T00:30:16.909Z,11.86
2018-07-11T00:31:19.729Z,11.87
2018-07-11T00:32:23.620Z,11.91
2018-07-11T00:33:27.253Z,11.89
2018-07-11T00:34:30.712Z,11.89
2018-07-11T00:35:33.493Z,11.86
2018-07-11T00:36:36.266Z,11.87
2018-07-11T00:37:39.063Z,11.85
2018-07-11T00:38:42.666Z,11.89
2018-07-11T00:39:45.573Z,11.93
2018-07-11T00:40:48.390Z,11.95
2018-07-11T00:41:51.208Z,11.94
2018-07-11T00:42:54.072Z,11.96
2018-07-11T00:43:57.332Z,11.92
2018-07-11T00:45:01.241Z,11.82
2018-07-11T00:46:05.306Z,11.84
2018-07-11T00:47:08.115Z,11.88
2018-07-11T00:48:11.699Z,11.91
2018-07-11T00:49:14.476Z,11.92
2018-07-11T00:50:17.331Z,11.92
2018-07-11T00:51:22.329Z,11.93
2018-07-11T00:52:25.228Z,11.91
2018-07-11T00:53:28.005Z,11.92
2018-07-11T00:54:30.817Z,11.95
2018-07-11T00:55:33.588Z,11.96
2018-07-11T00:56:37.363Z,11.98
2018-07-11T00:57:41.168Z,11.99
2018-07-11T00:58:44.060Z,12.03
2018-07-11T00:59:47.482Z,12.03
2018-07-11T01:00:51.028Z,12.05
2018-07-11T01:01:54.221Z,11.99
2018-07-11T01:02:57.394Z,11.98
2018-07-11T01:04:01.393Z,11.98
2018-07-11T01:05:04.910Z,11.97
2018-07-11T01:06:08.566Z,11.98
2018-07-11T01:07:14.799Z,12.01
2018-07-11T01:08:18.468Z,12.01
2018-07-11T01:09:21.233Z,12.06
2018-07-11T01:10:24.297Z,12.10
2018-07-11T01:11:27.588Z,12.06
2018-07-11T01:12:30.432Z,12.06
2018-07-11T01:13:33.301Z,12.09
2018-07-11T01:14:38.654Z,12.12
2018-07-11T01:15:41.442Z,12.13
2018-07-11T01:16:44.491Z,12.13
2018-07-11T01:17:52.176Z,12.14
2018-07-11T01:18:55.851Z,12.17
2018-07-11T01:19:58.651Z,12.16
2018-07-11T01:21:01.571Z,12.18
2018-07-11T01:22:05.039Z,12.20
2018-07-11T01:23:07.860Z,12.22
2018-07-11T01:24:10.747Z,12.21
2018-07-11T01:25:13.556Z,12.20
2018-07-11T01:26:16.919Z,12.20
2018-07-11T01:27:20.300Z,12.21
2018-07-11T01:28:23.103Z,12.24
2018-07-11T01:29:25.903Z,12.26
2018-07-11T01:30:28.665Z,12.26
2018-07-11T01:31:31.469Z,12.27
2018-07-11T01:32:34.269Z,12.20
2018-07-11T01:33:37.374Z,12.13
2018-07-11T01:34:40.180Z,12.14
2018-07-11T01:35:44.162Z,12.14
2018-07-11T01:36:46.962Z,12.06
2018-07-11T01:37:49.737Z,12.05
2018-07-11T01:38:52.610Z,12.05
2018-07-11T01:39:55.692Z,12.06
2018-07-11T01:40:59.941Z,12.02
2018-07-11T01:42:02.751Z,12.02
2018-07-11T01:43:05.558Z,12.06
2018-07-11T01:44:08.312Z,12.07
2018-07-11T01:45:11.441Z,12.10
2018-07-11T01:46:15.703Z,12.07
2018-07-11T01:47:19.125Z,12.06
2018-07-11T01:48:21.941Z,12.09
2018-07-11T01:49:24.724Z,12.12
2018-07-11T01:50:27.550Z,12.13
2018-07-11T01:51:31.216Z,12.15
2018-07-11T01:52:34.311Z,12.21
2018-07-11T01:53:39.490Z,12.27
2018-07-11T01:54:42.289Z,12.28
2018-07-11T01:55:45.650Z,12.31
2018-07-11T01:56:48.684Z,12.34
2018-07-11T01:57:52.191Z,12.37
2018-07-11T01:58:55.325Z,12.38
2018-07-11T01:59:59.241Z,12.38
2018-07-11T02:01:02.560Z,12.39
2018-07-11T02:02:06.341Z,12.35
2018-07-11T02:03:09.150Z,12.37
2018-07-11T02:04:12.594Z,12.38
2018-07-11T02:05:15.814Z,12.38
2018-07-11T02:06:18.601Z,12.41
2018-07-11T02:07:21.399Z,12.42
2018-07-11T02:08:24.241Z,12.38
2018-07-11T02:09:27.189Z,12.40
2018-07-11T02:10:29.960Z,12.39
2018-07-11T02:11:33.033Z,12.38
2018-07-11T02:12:35.840Z,12.37
2018-07-11T02:13:38.644Z,12.34
2018-07-11T02:14:41.585Z,12.30
2018-07-11T02:15:44.391Z,12.30
2018-07-11T02:16:47.853Z,12.26
2018-07-11T02:17:52.504Z,12.26
2018-07-11T02:18:55.300Z,12.27
2018-07-11T02:20:01.112Z,12.22
2018-07-11T02:21:04.984Z,12.14
2018-07-11T02:22:07.758Z,12.15
2018-07-11T02:23:12.429Z,12.20
2018-07-11T02:24:18.930Z,12.22
2018-07-11T02:25:22.955Z,12.21
2018-07-11T02:26:25.721Z,12.22
2018-07-11T02:27:33.143Z,12.21
2018-07-11T02:28:35.986Z,12.25
2018-07-11T02:29:39.540Z,12.25
2018-07-11T02:30:42.675Z,12.18
2018-07-11T02:31:46.549Z,12.21
2018-07-11T02:32:49.316Z,12.22
2018-07-11T02:33:52.132Z,12.18
2018-07-11T02:34:55.016Z,12.18
2018-07-11T02:35:57.850Z,12.12
2018-07-11T02:37:00.983Z,12.15
2018-07-11T02:38:03.780Z,12.16
2018-07-11T02:39:06.751Z,12.20
2018-07-11T02:40:09.553Z,12.24
2018-07-11T02:41:12.334Z,12.24
2018-07-11T02:42:15.157Z,12.27
2018-07-11T02:43:18.241Z,12.28
2018-07-11T02:44:21.028Z,12.27
2018-07-11T02:45:23.845Z,12.30
2018-07-11T02:46:31.426Z,12.31
2018-07-11T02:47:39.153Z,12.28
2018-07-11T02:48:43.432Z,12.19
2018-07-11T02:49:46.476Z,12.21
2018-07-11T02:50:50.488Z,12.17
2018-07-11T02:51:53.538Z,12.16
2018-07-11T02:52:56.318Z,12.12
2018-07-11T02:53:59.108Z,12.12
2018-07-11T02:55:01.912Z,12.14
2018-07-11T02:56:05.010Z,12.10
2018-07-11T02:57:07.808Z,12.05
2018-07-11T02:58:11.505Z,12.09
2018-07-11T02:59:14.293Z,12.16
2018-07-11T03:00:17.091Z,12.22
2018-07-11T03:01:19.911Z,12.23
2018-07-11T03:02:23.133Z,12.22
2018-07-11T03:03:25.979Z,12.16
2018-07-11T03:04:28.801Z,12.18
2018-07-11T03:05:31.577Z,12.24
2018-07-11T03:06:34.383Z,12.26
2018-07-11T03:07:37.175Z,12.28
2018-07-11T03:08:40.416Z,12.30
2018-07-11T03:09:43.210Z,12.28
2018-07-11T03:10:46.252Z,12.29
2018-07-11T03:11:49.042Z,12.29
2018-07-11T03:12:51.880Z,12.26
2018-07-11T03:13:54.707Z,12.26
2018-07-11T03:14:57.836Z,12.23
2018-07-11T03:16:00.609Z,12.23
2018-07-11T03:17:04.249Z,12.20
2018-07-11T03:18:07.150Z,12.17
2018-07-11T03:19:09.950Z,12.18
2018-07-11T03:20:12.780Z,12.19
2018-07-11T03:21:17.029Z,12.18
2018-07-11T03:22:19.978Z,12.22
2018-07-11T03:23:22.803Z,12.26
2018-07-11T03:24:25.609Z,12.30
2018-07-11T03:25:28.420Z,12.33
2018-07-11T03:26:31.208Z,12.32
2018-07-11T03:27:34.316Z,12.33
2018-07-11T03:28:37.166Z,12.33
2018-07-11T03:29:40.040Z,12.30
2018-07-11T03:30:42.894Z,12.32
2018-07-11T03:31:45.910Z,12.36
2018-07-11T03:32:48.759Z,12.39
2018-07-11T03:33:51.850Z,12.40
2018-07-11T03:34:55.336Z,12.42
2018-07-11T03:35:58.132Z,12.43
2018-07-11T03:37:00.960Z,12.42
2018-07-11T03:38:03.743Z,12.42
2018-07-11T03:39:07.079Z,12.41
2018-07-11T03:40:10.177Z,12.42
2018-07-11T03:41:12.986Z,12.43
2018-07-11T03:42:15.785Z,12.45
2018-07-11T03:43:18.605Z,12.45
2018-07-11T03:44:21.381Z,12.42
2018-07-11T03:45:24.199Z,12.40
2018-07-11T03:46:27.280Z,12.39
2018-07-11T03:47:30.116Z,12.44
2018-07-11T03:48:32.912Z,12.45
2018-07-11T03:49:35.741Z,12.47
2018-07-11T03:50:38.570Z,12.45
2018-07-11T03:51:41.369Z,12.45
2018-07-11T03:52:44.521Z,12.47
2018-07-11T03:53:47.389Z,12.49
2018-07-11T03:54:50.177Z,12.52
2018-07-11T03:55:53.010Z,12.56
2018-07-11T03:56:55.842Z,12.55
2018-07-11T03:57:58.615Z,12.53
2018-07-11T03:59:01.819Z,12.56
2018-07-11T04:00:04.684Z,12.58
2018-07-11T04:01:07.464Z,12.59
2018-07-11T04:02:10.475Z,12.55
2018-07-11T04:03:13.251Z,12.55
2018-07-11T04:04:16.044Z,12.54
2018-07-11T04:05:18.829Z,12.53
2018-07-11T04:06:21.640Z,12.53
2018-07-11T04:07:24.464Z,12.57
2018-07-11T04:08:27.242Z,12.58
2018-07-11T04:09:30.911Z,12.63
2018-07-11T04:10:34.013Z,12.67
2018-07-11T04:11:38.052Z,12.66
2018-07-11T04:12:40.867Z,12.67
2018-07-11T04:13:43.682Z,12.73
2018-07-11T04:14:46.839Z,12.72
2018-07-11T04:15:49.705Z,12.71
2018-07-11T04:16:52.848Z,12.69
2018-07-11T04:17:55.657Z,12.71
2018-07-11T04:18:58.535Z,12.70
2018-07-11T04:20:01.360Z,12.77
2018-07-11T04:21:04.416Z,12.76
2018-07-11T04:22:07.197Z,12.73
2018-07-11T04:23:10.311Z,12.71
2018-07-11T04:24:13.113Z,12.71
2018-07-11T04:25:15.896Z,12.78
2018-07-11T04:26:18.716Z,12.79
2018-07-11T04:27:21.681Z,12.80
2018-07-11T04:28:25.969Z,12.83
2018-07-11T04:29:29.084Z,12.78
2018-07-11T04:30:31.922Z,12.76
2018-07-11T04:31:34.740Z,12.77
2018-07-11T04:32:37.615Z,12.80
2018-07-11T04:33:40.406Z,12.81
2018-07-11T04:34:43.868Z,12.88
2018-07-11T04:35:46.951Z,12.85
2018-07-11T04:36:49.738Z,12.84
2018-07-11T04:37:52.510Z,12.80
2018-07-11T04:38:55.373Z,12.79
2018-07-11T04:39:58.187Z,12.83
2018-07-11T04:41:00.954Z,12.85
2018-07-11T04:42:04.893Z,12.85
2018-07-11T04:43:07.680Z,12.89
2018-07-11T04:44:10.505Z,12.94
2018-07-11T04:45:13.320Z,12.98
2018-07-11T04:46:16.524Z,13.01
2018-07-11T04:47:19.383Z,13.03
2018-07-11T04:48:22.504Z,13.09
2018-07-11T04:49:25.391Z,13.08
2018-07-11T04:50:28.220Z,13.09
2018-07-11T04:51:31.014Z,12.95
2018-07-11T04:52:34.417Z,12.91
2018-07-11T04:53:37.203Z,12.85
2018-07-11T04:54:40.300Z,12.84
2018-07-11T04:55:43.085Z,12.85
2018-07-11T04:56:45.864Z,12.82
2018-07-11T04:57:48.711Z,12.81
2018-07-11T04:58:51.625Z,12.86
2018-07-11T04:59:54.468Z,12.94
2018-07-11T05:00:57.941Z,12.98
2018-07-11T05:02:00.707Z,12.97
2018-07-11T05:03:03.535Z,12.99
2018-07-11T05:04:06.314Z,13.04
2018-07-11T05:05:09.160Z,13.08
2018-07-11T05:06:12.372Z,13.11
2018-07-11T05:07:15.511Z,13.10
2018-07-11T05:08:19.593Z,13.17
2018-07-11T05:09:22.390Z,13.16
2018-07-11T05:10:25.268Z,13.17
2018-07-11T05:11:29.053Z,13.18
2018-07-11T05:12:33.054Z,13.26
2018-07-11T05:13:36.339Z,13.26
2018-07-11T05:14:39.097Z,13.25
2018-07-11T05:15:44.638Z,13.27
2018-07-11T05:16:48.219Z,13.22
2018-07-11T05:17:51.109Z,13.24
2018-07-11T05:18:54.166Z,13.28
2018-07-11T05:19:56.975Z,13.25
2018-07-11T05:20:59.774Z,13.22
2018-07-11T05:22:02.636Z,13.22
2018-07-11T05:23:05.508Z,13.22
2018-07-11T05:24:08.343Z,13.27
2018-07-11T05:25:14.100Z,13.30
2018-07-11T05:26:18.174Z,13.35
2018-07-11T05:27:22.332Z,13.36
2018-07-11T05:28:25.189Z,13.40
2018-07-11T05:29:29.636Z,13.44
2018-07-11T05:30:33.333Z,13.45
2018-07-11T05:31:36.509Z,13.49
2018-07-11T05:32:39.787Z,13.56
2018-07-11T05:33:42.590Z,13.64
2018-07-11T05:34:45.439Z,13.69
2018-07-11T05:35:50.160Z,13.68
2018-07-11T05:36:53.310Z,13.66
2018-07-11T05:37:56.314Z,13.62
2018-07-11T05:38:59.455Z,13.65
2018-07-11T05:40:02.256Z,13.67
2018-07-11T05:41:05.050Z,13.71
2018-07-11T05:42:10.709Z,13.70
2018-07-11T05:43:13.510Z,13.71
2018-07-11T05:44:16.589Z,13.72
2018-07-11T05:45:19.836Z,13.74
2018-07-11T05:46:22.640Z,13.72
2018-07-11T05:47:25.461Z,13.68
2018-07-11T05:48:29.675Z,13.68
2018-07-11T05:49:32.632Z,13.67
2018-07-11T05:50:35.716Z,13.67
2018-07-11T05:51:39.139Z,13.60
2018-07-11T05:52:42.540Z,13.53
2018-07-11T05:53:45.381Z,13.48
2018-07-11T05:54:48.231Z,13.48
2018-07-11T05:55:51.097Z,13.49
2018-07-11T05:56:54.520Z,13.44
2018-07-11T05:57:57.748Z,13.41
2018-07-11T05:59:01.524Z,13.45
2018-07-11T06:00:04.515Z,13.49
2018-07-11T06:01:07.417Z,13.52
2018-07-11T06:02:11.369Z,13.53
2018-07-11T06:03:14.206Z,13.58
2018-07-11T06:04:17.420Z,13.64
2018-07-11T06:05:21.490Z,13.65
2018-07-11T06:06:24.404Z,13.68
2018-07-11T06:07:27.859Z,13.73
2018-07-11T06:08:31.760Z,13.69
2018-07-11T06:09:34.595Z,13.61
2018-07-11T06:10:37.740Z,13.64
2018-07-11T06:11:41.392Z,13.69
2018-07-11T06:12:44.220Z,13.72
2018-07-11T06:13:50.737Z,13.74
2018-07-11T06:14:53.571Z,13.79
2018-07-11T06:15:57.117Z,13.82
2018-07-11T06:17:01.972Z,13.85
2018-07-11T06:18:05.505Z,13.85
2018-07-11T06:19:09.243Z,13.89
2018-07-11T06:20:12.050Z,13.97
2018-07-11T06:21:14.842Z,14.00
2018-07-11T06:22:17.637Z,14.05
2018-07-11T06:23:20.880Z,14.16
2018-07-11T06:24:24.197Z,14.26
2018-07-11T06:25:27.021Z,14.26
2018-07-11T06:26:29.824Z,14.37
2018-07-11T06:27:33.593Z,14.46
2018-07-11T06:28:36.395Z,14.46
2018-07-11T06:29:39.709Z,14.48
2018-07-11T06:30:43.530Z,14.47
2018-07-11T06:31:46.318Z,14.45
2018-07-11T06:32:49.137Z,14.46
2018-07-11T06:33:51.937Z,14.47
2018-07-11T06:34:54.784Z,14.46
2018-07-11T06:35:57.979Z,14.43
2018-07-11T06:37:00.799Z,14.38
2018-07-11T06:38:03.695Z,14.34
2018-07-11T06:39:06.556Z,14.34
2018-07-11T06:40:09.367Z,14.31
2018-07-11T06:41:12.284Z,14.34
2018-07-11T06:42:17.367Z,14.43
2018-07-11T06:43:20.186Z,14.34
2018-07-11T06:44:23.012Z,14.32
2018-07-11T06:45:25.863Z,14.38
2018-07-11T06:46:29.331Z,14.42
2018-07-11T06:47:33.950Z,14.45
2018-07-11T06:48:40.140Z,14.52
2018-07-11T06:49:43.323Z,14.52
2018-07-11T06:50:46.728Z,14.48
2018-07-11T06:51:50.063Z,14.57
2018-07-11T06:52:52.996Z,14.68
2018-07-11T06:53:55.799Z,14.95
2018-07-11T06:54:58.579Z,15.14
2018-07-11T06:56:02.014Z,15.42
2018-07-11T06:57:05.343Z,15.72
2018-07-11T06:58:08.390Z,15.92
2018-07-11T06:59:11.290Z,16.23
2018-07-11T07:00:14.081Z,16.35
2018-07-11T07:01:17.552Z,16.43
2018-07-11T07:02:20.345Z,16.20
2018-07-11T07:03:23.244Z,15.97
2018-07-11T07:04:27.517Z,15.83
2018-07-11T07:05:30.291Z,15.73
2018-07-11T07:06:33.099Z,15.69
2018-07-11T07:07:36.353Z,15.50
2018-07-11T07:08:39.701Z,15.47
2018-07-11T07:09:43.024Z,15.39
2018-07-11T07:10:46.365Z,15.36
2018-07-11T07:11:53.352Z,15.54
2018-07-11T07:12:57.320Z,15.65
2018-07-11T07:14:01.253Z,15.77
2018-07-11T07:15:05.693Z,15.92
2018-07-11T07:16:08.506Z,16.01
2018-07-11T07:17:12.292Z,15.84
2018-07-11T07:18:15.658Z,15.96
2018-07-11T07:19:18.504Z,16.10
2018-07-11T07:20:21.801Z,16.16
2018-07-11T07:21:24.614Z,16.33
2018-07-11T07:22:28.259Z,16.33
2018-07-11T07:23:32.071Z,16.28
2018-07-11T07:24:34.871Z,16.20
2018-07-11T07:25:37.692Z,16.16
2018-07-11T07:26:40.866Z,16.15
2018-07-11T07:27:43.751Z,16.08
2018-07-11T07:28:46.745Z,16.13
2018-07-11T07:29:49.581Z,16.05
2018-07-11T07:30:52.369Z,16.12
2018-07-11T07:31:55.720Z,16.24
2018-07-11T07:32:58.843Z,16.27
2018-07-11T07:34:01.675Z,16.34
2018-07-11T07:35:04.581Z,16.51
2018-07-11T07:36:07.436Z,16.56
2018-07-11T07:37:10.219Z,16.54
2018-07-11T07:38:14.318Z,16.32
2018-07-11T07:39:17.607Z,16.25
2018-07-11T07:40:20.540Z,16.21
2018-07-11T07:41:23.368Z,16.20
2018-07-11T07:42:26.238Z,16.22
2018-07-11T07:43:30.249Z,16.25
2018-07-11T07:44:34.182Z,16.36
2018-07-11T07:45:37.285Z,16.31
2018-07-11T07:46:40.226Z,16.44
2018-07-11T07:47:44.964Z,16.86
2018-07-11T07:48:47.953Z,17.34
2018-07-11T07:49:50.783Z,17.52
2018-07-11T07:50:53.840Z,17.79
2018-07-11T07:51:57.377Z,17.82
2018-07-11T07:53:00.163Z,18.01
2018-07-11T07:54:03.006Z,17.88
2018-07-11T07:55:05.938Z,17.93
2018-07-11T07:56:08.751Z,18.01
2018-07-11T07:57:11.600Z,18.17
2018-07-11T07:58:15.549Z,18.20
2018-07-11T07:59:18.354Z,18.37
2018-07-11T08:00:21.213Z,18.49
2018-07-11T08:01:24.023Z,18.56
2018-07-11T08:02:26.797Z,18.48
2018-07-11T08:03:29.566Z,18.43
2018-07-11T08:04:32.639Z,18.58
2018-07-11T08:05:35.471Z,18.79
2018-07-11T08:06:38.316Z,18.63
2018-07-11T08:07:41.668Z,18.69
2018-07-11T08:08:44.443Z,18.58
2018-07-11T08:09:51.691Z,18.53
2018-07-11T08:10:56.381Z,18.51
2018-07-11T08:11:59.316Z,18.61
2018-07-11T08:13:02.110Z,18.64
2018-07-11T08:14:04.888Z,18.78
2018-07-11T08:15:08.330Z,18.82
2018-07-11T08:16:12.129Z,18.55
2018-07-11T08:17:15.359Z,18.68
2018-07-11T08:18:20.284Z,18.93
2018-07-11T08:19:23.786Z,19.13
2018-07-11T08:20:26.590Z,18.84
2018-07-11T08:21:29.532Z,18.18
2018-07-11T08:22:32.381Z,17.92
2018-07-11T08:23:36.142Z,17.84
2018-07-11T08:24:39.013Z,17.71
2018-07-11T08:25:42.178Z,18.05
2018-07-11T08:26:44.978Z,18.45
2018-07-11T08:27:47.902Z,18.73
2018-07-11T08:28:50.869Z,19.01
2018-07-11T08:29:56.254Z,19.15
2018-07-11T08:30:59.047Z,19.23
2018-07-11T08:32:01.893Z,19.22
2018-07-11T08:33:05.061Z,19.33
2018-07-11T08:34:08.516Z,19.55
2018-07-11T08:35:11.462Z,19.61
2018-07-11T08:36:14.770Z,19.58
2018-07-11T08:37:17.631Z,19.74
2018-07-11T08:38:20.610Z,19.69
2018-07-11T08:39:24.496Z,19.43
2018-07-11T08:40:28.048Z,19.26
2018-07-11T08:41:30.846Z,18.99
2018-07-11T08:42:38.523Z,19.08
2018-07-11T08:43:42.968Z,18.77
2018-07-11T08:44:45.970Z,19.02
2018-07-11T08:45:48.774Z,19.22
2018-07-11T08:46:51.579Z,19.16
2018-07-11T08:47:54.398Z,19.11
2018-07-11T08:48:57.791Z,19.50
2018-07-11T08:50:00.611Z,19.64
2018-07-11T08:51:03.652Z,19.88
2018-07-11T08:52:06.448Z,20.18
2018-07-11T08:53:09.260Z,20.39
2018-07-11T08:54:14.182Z,20.08
2018-07-11T08:55:17.379Z,19.72
2018-07-11T08:56:21.293Z,19.57
2018-07-11T08:57:24.120Z,19.73
2018-07-11T08:58:27.920Z,20.03
2018-07-11T08:59:30.792Z,19.99
2018-07-11T09:00:33.561Z,19.98
2018-07-11T09:01:37.574Z,20.01
2018-07-11T09:02:41.285Z,20.22
2018-07-11T09:03:45.843Z,20.02
2018-07-11T09:04:48.677Z,19.81
2018-07-11T09:05:51.465Z,19.53
2018-07-11T09:06:54.479Z,19.77
2018-07-11T09:07:58.602Z,19.89
2018-07-11T09:09:01.452Z,20.08
2018-07-11T09:10:04.268Z,19.94
2018-07-11T09:11:07.084Z,19.74
2018-07-11T09:12:09.908Z,19.70
2018-07-11T09:13:12.741Z,19.71
2018-07-11T09:14:16.529Z,19.77
2018-07-11T09:15:20.371Z,19.78
2018-07-11T09:16:23.194Z,19.94
2018-07-11T09:17:26.997Z,20.19
2018-07-11T09:18:29.788Z,20.05
2018-07-11T09:19:32.694Z,20.02
2018-07-11T09:20:36.596Z,20.03
2018-07-11T09:21:40.341Z,19.97
2018-07-11T09:22:43.257Z,19.89
2018-07-11T09:23:46.101Z,20.04
2018-07-11T09:24:49.987Z,20.15
2018-07-11T09:25:53.478Z,20.35
2018-07-11T09:26:56.682Z,20.20
2018-07-11T09:28:00.391Z,19.91
2018-07-11T09:29:03.225Z,20.22
2018-07-11T09:30:07.884Z,20.56
2018-07-11T09:31:11.564Z,20.56
2018-07-11T09:32:14.965Z,20.50
2018-07-11T09:33:18.091Z,20.48
2018-07-11T09:34:20.886Z,20.15
2018-07-11T09:35:23.669Z,20.08
2018-07-11T09:36:26.570Z,20.07
2018-07-11T09:37:29.436Z,20.14
2018-07-11T09:38:33.361Z,20.32
2018-07-11T09:39:36.470Z,20.21
2018-07-11T09:40:39.979Z,19.88
2018-07-11T09:41:43.432Z,19.64
2018-07-11T09:42:46.227Z,19.66
2018-07-11T09:43:50.267Z,19.65
2018-07-11T09:44:53.795Z,19.78
2018-07-11T09:45:57.931Z,19.64
2018-07-11T09:47:01.042Z,19.80
2018-07-11T09:48:05.189Z,19.87
2018-07-11T09:49:08.623Z,20.08
2018-07-11T09:50:11.531Z,20.21
2018-07-11T09:51:15.391Z,20.39
2018-07-11T09:52:20.541Z,19.99
2018-07-11T09:53:24.033Z,19.80
2018-07-11T09:54:27.420Z,19.72
2018-07-11T09:55:30.284Z,19.86
2018-07-11T09:56:34.319Z,19.93
2018-07-11T09:57:37.766Z,19.97
2018-07-11T09:58:41.939Z,19.75
2018-07-11T09:59:44.775Z,19.59
2018-07-11T10:00:53.670Z,19.43
2018-07-11T10:01:59.493Z,19.73
2018-07-11T10:03:02.344Z,20.08
2018-07-11T10:04:05.263Z,20.11
2018-07-11T10:05:13.122Z,19.90
2018-07-11T10:06:16.525Z,19.91
2018-07-11T10:07:19.350Z,19.95
2018-07-11T10:08:22.763Z,20.04
2018-07-11T10:09:26.426Z,19.98
2018-07-11T10:10:32.889Z,19.93
2018-07-11T10:11:36.056Z,19.97
2018-07-11T10:12:38.964Z,19.99
2018-07-11T10:13:42.349Z,19.87
2018-07-11T10:14:45.206Z,19.62
2018-07-11T10:15:49.119Z,19.71
2018-07-11T10:16:52.872Z,19.62
2018-07-11T10:17:56.756Z,19.46
2018-07-11T10:19:02.856Z,19.24
2018-07-11T10:20:06.561Z,19.22
2018-07-11T10:21:10.273Z,19.27
2018-07-11T10:22:14.551Z,19.20
2018-07-11T10:23:18.434Z,19.29
2018-07-11T10:24:23.704Z,19.14
2018-07-11T10:25:27.480Z,19.16
2018-07-11T10:26:30.439Z,19.15
2018-07-11T10:27:33.248Z,19.08
2018-07-11T10:34:38.537Z,18.96
2018-07-11T10:35:41.639Z,18.85
2018-07-11T10:36:44.433Z,18.91
2018-07-11T10:37:48.449Z,18.83
2018-07-11T10:38:51.291Z,18.76
2018-07-11T10:39:54.743Z,18.77
2018-07-11T10:40:57.871Z,18.73
2018-07-11T10:42:01.975Z,18.70
2018-07-11T10:43:04.813Z,18.75
2018-07-11T10:44:07.873Z,18.66
2018-07-11T10:45:11.542Z,18.45
2018-07-11T10:46:14.329Z,18.54
2018-07-11T10:47:17.435Z,18.58
2018-07-11T10:48:21.654Z,18.62
2018-07-11T10:49:24.711Z,18.70
2018-07-11T10:50:32.483Z,18.57
2018-07-11T10:51:37.599Z,18.62
2018-07-11T10:52:42.659Z,18.65
2018-07-11T10:53:45.724Z,18.66
2018-07-11T10:54:48.529Z,18.47
2018-07-11T10:55:55.434Z,18.44
2018-07-11T10:56:59.911Z,18.18
2018-07-11T10:58:02.758Z,18.44
2018-07-11T10:59:05.583Z,18.65
2018-07-11T11:00:09.641Z,18.81
2018-07-11T11:01:13.100Z,18.85
2018-07-11T11:02:16.672Z,18.94
2018-07-11T11:03:20.277Z,19.00
2018-07-11T11:04:23.492Z,19.09
2018-07-11T11:05:26.332Z,19.07
2018-07-11T11:06:30.340Z,19.27
2018-07-11T11:07:33.663Z,19.23
2018-07-11T11:08:36.738Z,19.10
2018-07-11T11:09:40.184Z,19.14
2018-07-11T11:10:43.784Z,19.20
2018-07-11T11:11:46.544Z,19.01
2018-07-11T11:12:50.756Z,19.12
2018-07-11T11:13:53.553Z,19.27
2018-07-11T11:14:56.374Z,19.18
2018-07-11T11:16:04.599Z,19.12
2018-07-11T11:17:08.241Z,19.09
2018-07-11T11:18:11.003Z,19.14
2018-07-11T11:19:14.166Z,19.10
2018-07-11T11:20:18.575Z,18.77
2018-07-11T11:21:21.379Z,18.55
2018-07-11T11:22:31.486Z,18.50
2018-07-11T11:23:34.301Z,18.46
2018-07-11T11:24:38.488Z,18.58
2018-07-11T11:25:42.212Z,18.44
2018-07-11T11:26:47.566Z,18.36
2018-07-11T11:27:51.243Z,18.57
2018-07-11T11:28:54.156Z,18.62
2018-07-11T11:29:57.505Z,18.56
2018-07-11T11:31:01.215Z,18.55
2018-07-11T11:32:08.117Z,18.60
2018-07-11T11:33:11.208Z,18.61
2018-07-11T11:34:17.322Z,18.69
2018-07-11T11:35:20.948Z,18.66
2018-07-11T11:36:25.418Z,18.65
2018-07-11T11:37:30.085Z,18.69
2018-07-11T11:38:37.833Z,18.75
2018-07-11T11:39:43.495Z,18.64
2018-07-11T11:40:49.686Z,18.50
2018-07-11T11:41:53.592Z,18.50
2018-07-11T11:42:58.533Z,18.53
2018-07-11T11:44:02.529Z,18.56
2018-07-11T11:45:07.062Z,18.56
2018-07-11T11:46:09.846Z,18.60
2018-07-11T11:47:12.653Z,18.48
2018-07-11T11:48:15.532Z,18.57
2018-07-11T11:49:18.356Z,18.44
2018-07-11T11:50:22.238Z,18.50
2018-07-11T11:51:25.460Z,18.52
2018-07-11T11:52:30.671Z,18.53
2018-07-11T11:53:34.311Z,18.64
2018-07-11T11:54:37.168Z,18.62
2018-07-11T11:55:39.986Z,18.57
2018-07-11T11:56:42.785Z,18.47
2018-07-11T11:57:47.973Z,18.40
2018-07-11T11:58:50.744Z,18.60
2018-07-11T11:59:53.651Z,18.78
2018-07-11T12:00:56.476Z,18.89
2018-07-11T12:01:59.601Z,18.88
2018-07-11T12:03:03.640Z,19.03
2018-07-11T12:04:08.865Z,19.15
2018-07-11T12:05:11.822Z,19.21
2018-07-11T12:06:14.680Z,19.35
2018-07-11T12:07:18.517Z,19.51
2018-07-11T12:08:21.307Z,19.47
2018-07-11T12:09:24.256Z,19.52
2018-07-11T12:10:27.689Z,19.56
2018-07-11T12:11:30.546Z,19.57
2018-07-11T12:12:34.172Z,19.56
2018-07-11T12:13:36.984Z,19.42
2018-07-11T12:14:39.750Z,19.29
2018-07-11T12:15:42.602Z,19.46
2018-07-11T12:16:45.434Z,19.62
2018-07-11T12:17:48.232Z,19.51
2018-07-11T12:18:51.993Z,19.71
2018-07-11T12:19:55.712Z,19.68
2018-07-11T12:20:59.750Z,19.42
2018-07-11T12:22:07.616Z,18.57
2018-07-11T12:23:10.776Z,18.49
2018-07-11T12:24:15.573Z,18.27
2018-07-11T12:25:20.065Z,18.70
2018-07-11T12:26:23.536Z,18.89
2018-07-11T12:27:26.388Z,19.25
2018-07-11T12:28:30.736Z,19.19
2018-07-11T12:29:33.973Z,19.35
2018-07-11T12:30:37.448Z,19.47
2018-07-11T12:31:41.672Z,19.40
2018-07-11T12:32:46.009Z,19.12
2018-07-11T12:33:50.450Z,18.58
2018-07-11T12:34:54.635Z,18.58
2018-07-11T12:36:00.054Z,18.63
2018-07-11T12:37:02.927Z,18.44
2018-07-11T12:38:05.766Z,18.44
2018-07-11T12:39:09.606Z,18.15
2018-07-11T12:40:13.050Z,18.04
2018-07-11T12:41:15.878Z,18.03
2018-07-11T12:42:19.811Z,18.03
2018-07-11T12:43:23.423Z,18.28
2018-07-11T12:44:27.939Z,18.20
2018-07-11T12:45:30.759Z,18.25
2018-07-11T12:46:34.129Z,18.21
2018-07-11T12:47:41.818Z,18.31
2018-07-11T12:48:49.523Z,18.44
2018-07-11T12:49:52.333Z,18.57
2018-07-11T12:50:55.164Z,18.36
2018-07-11T12:51:57.974Z,17.92
2018-07-11T12:53:00.739Z,17.98
2018-07-11T12:54:04.924Z,18.17
2018-07-11T12:55:10.203Z,18.05
2018-07-11T12:56:13.028Z,17.94
2018-07-11T12:57:15.924Z,17.82
2018-07-11T12:58:19.819Z,17.62
2018-07-11T12:59:23.335Z,17.73
2018-07-11T13:00:30.262Z,17.73
2018-07-11T13:01:35.644Z,17.85
2018-07-11T13:02:38.479Z,18.06
2018-07-11T13:03:41.305Z,18.34
2018-07-11T13:04:44.155Z,18.54
2018-07-11T13:05:47.219Z,18.41
2018-07-11T13:06:50.343Z,18.55
2018-07-11T13:07:53.184Z,18.72
2018-07-11T13:08:56.274Z,18.54
2018-07-11T13:09:59.706Z,18.43
2018-07-11T13:11:02.750Z,18.37
2018-07-11T13:12:06.935Z,18.47
2018-07-11T13:13:11.927Z,18.45
2018-07-11T13:14:14.750Z,18.45
2018-07-11T13:15:18.599Z,18.38
2018-07-11T13:16:22.656Z,18.21
2018-07-11T13:17:27.529Z,18.11
2018-07-11T13:18:30.993Z,18.23
2018-07-11T13:19:36.178Z,18.28
2018-07-11T13:20:39.853Z,18.36
2018-07-11T13:21:42.731Z,18.36
2018-07-11T13:22:46.853Z,18.44
2018-07-11T13:23:51.282Z,18.47
2018-07-11T13:24:54.117Z,18.50
2018-07-11T13:25:57.376Z,18.44
2018-07-11T13:27:00.222Z,18.42
2018-07-11T13:28:03.571Z,18.41
2018-07-11T13:29:06.395Z,18.36
2018-07-11T13:30:09.282Z,18.31
2018-07-11T13:31:17.120Z,18.36
2018-07-11T13:32:20.075Z,18.42
2018-07-11T13:33:27.795Z,18.40
2018-07-11T13:34:30.573Z,18.30
2018-07-11T13:35:34.026Z,18.18
2018-07-11T13:36:36.884Z,17.67
2018-07-11T13:37:40.886Z,17.71
2018-07-11T13:38:43.704Z,17.88
2018-07-11T13:39:51.255Z,18.01
2018-07-11T13:40:54.336Z,18.08
2018-07-11T13:42:00.683Z,17.78
2018-07-11T13:43:05.010Z,17.66